Time;durP1;ratioP1;P1;durP2;ratioP2;P2;SDS_P1;SDS_P2;PMS_P1;PMS_P2;Temp;Humidity;BMP_temperature;BMP_pressure;BME280_temperature;BME280_humidity;BME280_pressure;Samples;Min_cycle;Max_cycle;Signal;HPM_P1;HPM_P2
2023/08/09 00:00:50;;;;;;;;;;;10.80;99.90;;;;;;5094026;28;19928;-62
2023/08/09 00:03:18;;;;;;;;;;;10.80;99.90;;;;;;5092488;28;19924;-62
2023/08/09 00:05:45;;;;;;;;;;;10.80;99.90;;;;;;5095871;28;19939;-62
2023/08/09 00:08:11;;;;;;;;;;;10.80;99.90;;;;;;5093712;28;20414;-63
2023/08/09 00:10:38;;;;;;;;;;;10.80;99.90;;;;;;5094266;28;19924;-62
2023/08/09 00:13:05;;;;;;;;;;;10.80;99.90;;;;;;5095092;28;19947;-62
2023/08/09 00:15:32;;;;;;;;;;;10.90;99.90;;;;;;5095358;28;19932;-62
2023/08/09 00:17:59;;;;;;;;;;;10.90;99.90;;;;;;5095608;28;19924;-62
2023/08/09 00:20:27;;;;;;;;;;;10.90;99.90;;;;;;5094877;28;19935;-63
2023/08/09 00:22:54;;;;;;;;;;;10.90;99.90;;;;;;5095290;28;19924;-63
2023/08/09 00:25:20;;;;;;;;;;;10.90;99.90;;;;;;5095647;28;20061;-62
2023/08/09 00:27:47;;;;;;;;;;;10.90;99.90;;;;;;5094578;28;20353;-63
2023/08/09 00:30:14;;;;;;;;;;;10.90;99.90;;;;;;5093116;28;19924;-63
2023/08/09 00:32:41;;;;;;;;;;;10.90;99.90;;;;;;5093618;28;19931;-63
2023/08/09 00:35:09;;;;;;;;;;;10.90;99.90;;;;;;5094765;28;20303;-63
2023/08/09 00:37:38;;;;;;;;;;;10.90;99.90;;;;;;5094823;28;19995;-63
2023/08/09 00:40:07;;;;;;;;;;;10.90;99.90;;;;;;5094126;28;19924;-63
2023/08/09 00:42:33;;;;;;;;;;;10.90;99.90;;;;;;5094366;28;20025;-63
2023/08/09 00:45:00;;;;;;;;;;;10.90;99.90;;;;;;5113965;28;20015;-63
2023/08/09 00:47:27;;;;;;;;;;;10.90;99.90;;;;;;5115294;28;19923;-64
2023/08/09 00:49:55;;;;;;;;;;;10.80;99.90;;;;;;5096618;28;20280;-62
2023/08/09 00:52:22;;;;;;;;;;;10.80;99.90;;;;;;5115014;28;20030;-64
2023/08/09 00:54:50;;;;;;;;;;;10.80;99.90;;;;;;5115513;28;19924;-63
2023/08/09 00:57:17;;;;;;;;;;;10.80;99.90;;;;;;5094132;28;19977;-63
2023/08/09 00:59:43;;;;;;;;;;;10.80;99.90;;;;;;5097107;28;19927;-63
2023/08/09 01:02:10;;;;;;;;;;;10.80;99.90;;;;;;5114961;28;19924;-63
2023/08/09 01:04:37;;;;;;;;;;;10.80;99.90;;;;;;5114252;28;19924;-63
2023/08/09 01:07:09;;;;;;;;;;;10.80;99.90;;;;;;5114916;28;20284;-63
2023/08/09 01:09:38;;;;;;;;;;;10.80;99.90;;;;;;5096303;28;19932;-62
2023/08/09 01:12:08;;;;;;;;;;;10.80;99.90;;;;;;5115005;28;19924;-63
2023/08/09 01:14:37;;;;;;;;;;;10.70;99.90;;;;;;5113049;28;19931;-63
2023/08/09 01:17:06;;;;;;;;;;;10.80;99.90;;;;;;5114349;28;19956;-62
2023/08/09 01:19:38;;;;;;;;;;;10.70;99.90;;;;;;5115009;28;20353;-62
2023/08/09 01:22:07;;;;;;;;;;;10.70;99.90;;;;;;5114859;28;19953;-63
2023/08/09 01:24:35;;;;;;;;;;;10.70;99.90;;;;;;5095846;28;20273;-63
2023/08/09 01:27:02;;;;;;;;;;;10.60;99.90;;;;;;5114730;28;20001;-63
2023/08/09 01:29:29;;;;;;;;;;;10.70;99.90;;;;;;5096335;28;20353;-64
2023/08/09 01:31:56;;;;;;;;;;;10.70;99.90;;;;;;5095537;28;19924;-63
2023/08/09 01:34:23;;;;;;;;;;;10.60;99.90;;;;;;5096074;28;19924;-62
2023/08/09 01:36:51;;;;;;;;;;;10.60;99.90;;;;;;5114488;28;20341;-62
2023/08/09 01:39:21;;;;;;;;;;;10.60;99.90;;;;;;5095410;28;20030;-63
2023/08/09 01:41:50;;;;;;;;;;;10.60;99.90;;;;;;5114521;28;20357;-63
2023/08/09 01:44:17;;;;;;;;;;;10.50;99.90;;;;;;5092103;28;20380;-63
2023/08/09 01:46:44;;;;;;;;;;;10.50;99.90;;;;;;5090942;28;20444;-62
2023/08/09 01:49:12;;;;;;;;;;;10.50;99.90;;;;;;5092382;28;19979;-62
2023/08/09 01:51:39;;;;;;;;;;;10.50;99.90;;;;;;5092085;28;19932;-63
2023/08/09 01:54:06;;;;;;;;;;;10.50;99.90;;;;;;5092534;28;19970;-63
2023/08/09 01:56:33;;;;;;;;;;;10.50;99.90;;;;;;5093943;28;19928;-63
2023/08/09 01:59:04;;;;;;;;;;;10.50;99.90;;;;;;5092634;28;19950;-62
2023/08/09 02:01:31;;;;;;;;;;;10.40;99.90;;;;;;5093794;28;19924;-62
2023/08/09 02:03:57;;;;;;;;;;;10.50;99.90;;;;;;5092416;28;19967;-63
2023/08/09 02:06:24;;;;;;;;;;;10.40;99.90;;;;;;5092990;28;19928;-62
2023/08/09 02:08:51;;;;;;;;;;;10.40;99.90;;;;;;5093506;28;19924;-62
2023/08/09 02:11:17;;;;;;;;;;;10.40;99.90;;;;;;5093247;28;20379;-62
2023/08/09 02:13:44;;;;;;;;;;;10.40;99.90;;;;;;5091317;28;19969;-62
2023/08/09 02:16:12;;;;;;;;;;;10.30;99.90;;;;;;5091783;28;19928;-63
2023/08/09 02:18:39;;;;;;;;;;;10.30;99.90;;;;;;5091688;28;19935;-62
2023/08/09 02:21:06;;;;;;;;;;;10.30;99.90;;;;;;5092824;28;19939;-62
2023/08/09 02:23:33;;;;;;;;;;;10.20;99.90;;;;;;5092063;28;19924;-62
2023/08/09 02:25:59;;;;;;;;;;;10.20;99.90;;;;;;5093095;28;20018;-62
2023/08/09 02:28:26;;;;;;;;;;;10.20;99.90;;;;;;5091406;28;19924;-62
2023/08/09 02:30:53;;;;;;;;;;;10.20;99.90;;;;;;5093033;28;19924;-62
2023/08/09 02:33:21;;;;;;;;;;;10.20;99.90;;;;;;5092798;28;20380;-62
2023/08/09 02:35:52;;;;;;;;;;;10.20;99.90;;;;;;5091388;28;19924;-62
2023/08/09 02:38:19;;;;;;;;;;;10.20;99.90;;;;;;5091771;28;20142;-62
2023/08/09 02:40:45;;;;;;;;;;;10.20;99.90;;;;;;5090448;28;19931;-63
2023/08/09 02:43:12;;;;;;;;;;;10.20;99.90;;;;;;5096791;28;19923;-62
2023/08/09 02:45:39;;;;;;;;;;;10.20;99.90;;;;;;5111087;28;19931;-63
2023/08/09 02:48:07;;;;;;;;;;;10.10;99.90;;;;;;5112470;28;19928;-62
2023/08/09 02:50:36;;;;;;;;;;;10.10;99.90;;;;;;5113391;28;19923;-62
2023/08/09 02:53:03;;;;;;;;;;;10.10;99.90;;;;;;5094916;28;19939;-62
2023/08/09 02:55:30;;;;;;;;;;;10.10;99.90;;;;;;5094579;28;19923;-62
2023/08/09 02:57:57;;;;;;;;;;;10.00;99.90;;;;;;5094719;28;19974;-63
2023/08/09 03:00:23;;;;;;;;;;;10.00;99.90;;;;;;5095137;28;20007;-62
2023/08/09 03:02:50;;;;;;;;;;;10.00;99.90;;;;;;5094084;28;19932;-62
2023/08/09 03:05:17;;;;;;;;;;;10.00;99.90;;;;;;5113211;28;19952;-62
2023/08/09 03:07:45;;;;;;;;;;;10.00;99.90;;;;;;5112985;28;20443;-62
2023/08/09 03:10:12;;;;;;;;;;;10.00;99.90;;;;;;5112612;28;19973;-62
2023/08/09 03:12:38;;;;;;;;;;;9.90;99.90;;;;;;5112985;28;19949;-62
2023/08/09 03:15:06;;;;;;;;;;;10.00;99.90;;;;;;5113023;28;19938;-63
2023/08/09 03:17:32;;;;;;;;;;;10.00;99.90;;;;;;5094113;28;19938;-62
2023/08/09 03:19:59;;;;;;;;;;;9.90;99.90;;;;;;5112985;28;19931;-63
2023/08/09 03:22:26;;;;;;;;;;;9.90;99.90;;;;;;5112990;28;19931;-63
2023/08/09 03:24:54;;;;;;;;;;;9.90;99.90;;;;;;5094140;28;19924;-63
2023/08/09 03:27:21;;;;;;;;;;;9.90;99.90;;;;;;5112943;28;19924;-63
2023/08/09 03:29:48;;;;;;;;;;;9.90;99.90;;;;;;5098378;28;19924;-63
2023/08/09 03:32:14;;;;;;;;;;;9.90;99.90;;;;;;5098144;28;19924;-63
2023/08/09 03:34:41;;;;;;;;;;;9.80;99.90;;;;;;5098362;28;19931;-63
2023/08/09 03:37:08;;;;;;;;;;;9.80;99.90;;;;;;5098081;28;19924;-63
2023/08/09 03:39:35;;;;;;;;;;;9.80;99.90;;;;;;5098358;28;19924;-63
2023/08/09 03:42:03;;;;;;;;;;;9.70;99.90;;;;;;5114198;28;19924;-63
2023/08/09 03:44:30;;;;;;;;;;;9.70;99.90;;;;;;5096953;28;19928;-64
2023/08/09 03:46:57;;;;;;;;;;;9.70;99.90;;;;;;5088553;28;19979;-63
2023/08/09 03:49:24;;;;;;;;;;;9.90;99.90;;;;;;5112155;28;19924;-63
2023/08/09 03:51:50;;;;;;;;;;;10.10;99.90;;;;;;5094320;28;19927;-64
2023/08/09 03:54:17;;;;;;;;;;;10.20;99.90;;;;;;5096336;28;19924;-63
2023/08/09 03:56:44;;;;;;;;;;;10.50;99.90;;;;;;5113378;28;19924;-63
2023/08/09 03:59:12;;;;;;;;;;;10.80;99.90;;;;;;5096498;28;19924;-62
2023/08/09 04:01:39;;;;;;;;;;;10.40;99.90;;;;;;5112985;28;19931;-63
2023/08/09 04:04:07;;;;;;;;;;;10.80;99.90;;;;;;5094777;28;19924;-63
2023/08/09 04:06:34;;;;;;;;;;;10.90;99.90;;;;;;5094928;28;19924;-63
2023/08/09 04:09:00;;;;;;;;;;;11.20;99.90;;;;;;5113890;28;19951;-63
2023/08/09 04:11:29;;;;;;;;;;;11.10;99.90;;;;;;5096734;28;19936;-63
2023/08/09 04:13:56;;;;;;;;;;;11.20;99.90;;;;;;5113259;28;19928;-63
2023/08/09 04:16:24;;;;;;;;;;;11.20;99.90;;;;;;5114561;28;20356;-63
2023/08/09 04:18:51;;;;;;;;;;;11.20;99.90;;;;;;5094988;28;20276;-63
2023/08/09 04:21:18;;;;;;;;;;;11.10;99.90;;;;;;5094690;28;20368;-63
2023/08/09 04:23:45;;;;;;;;;;;11.30;99.90;;;;;;5093146;28;19927;-62
2023/08/09 04:26:12;;;;;;;;;;;11.30;99.90;;;;;;5111816;28;20398;-62
2023/08/09 04:28:39;;;;;;;;;;;11.10;99.90;;;;;;5112344;28;19924;-63
2023/08/09 04:31:06;;;;;;;;;;;11.20;99.90;;;;;;5112759;28;19927;-63
2023/08/09 04:33:34;;;;;;;;;;;11.40;99.90;;;;;;5111974;28;19924;-63
2023/08/09 04:36:00;;;;;;;;;;;11.30;99.90;;;;;;5094402;28;19935;-66
2023/08/09 04:38:28;;;;;;;;;;;11.10;99.90;;;;;;5108383;28;19924;-65
2023/08/09 04:40:54;;;;;;;;;;;11.30;99.90;;;;;;5093833;28;19931;-64
2023/08/09 04:43:21;;;;;;;;;;;11.20;99.90;;;;;;5095568;28;19923;-63
2023/08/09 04:45:48;;;;;;;;;;;11.10;99.90;;;;;;5114441;28;20022;-63
2023/08/09 04:48:18;;;;;;;;;;;10.90;99.90;;;;;;5113106;28;19924;-64
2023/08/09 04:50:47;;;;;;;;;;;11.10;99.90;;;;;;5113115;28;19978;-64
2023/08/09 04:53:14;;;;;;;;;;;11.20;99.90;;;;;;5113530;28;19970;-63
2023/08/09 04:55:41;;;;;;;;;;;11.20;99.90;;;;;;5110954;28;19971;-64
2023/08/09 04:58:08;;;;;;;;;;;11.20;99.90;;;;;;5114483;28;19923;-64
2023/08/09 05:00:34;;;;;;;;;;;11.30;99.90;;;;;;5111350;28;19984;-64
2023/08/09 05:03:01;;;;;;;;;;;11.40;99.90;;;;;;5093807;28;19973;-64
2023/08/09 05:05:28;;;;;;;;;;;11.40;99.90;;;;;;5111731;28;19932;-63
2023/08/09 05:07:56;;;;;;;;;;;11.70;99.90;;;;;;5092261;28;19928;-63
2023/08/09 05:10:23;;;;;;;;;;;11.90;99.90;;;;;;5111343;28;19931;-63
2023/08/09 05:12:50;;;;;;;;;;;11.80;99.90;;;;;;5091086;28;19928;-64
2023/08/09 05:15:17;;;;;;;;;;;11.80;99.90;;;;;;5112943;28;19932;-62
2023/08/09 05:17:43;;;;;;;;;;;11.70;99.90;;;;;;5094577;28;19924;-62
2023/08/09 05:20:11;;;;;;;;;;;11.70;99.90;;;;;;5110475;28;19927;-63
2023/08/09 05:22:38;;;;;;;;;;;11.70;99.90;;;;;;5110507;28;19930;-63
2023/08/09 05:25:07;;;;;;;;;;;11.90;99.90;;;;;;5094705;28;19946;-63
2023/08/09 05:27:33;;;;;;;;;;;12.00;99.90;;;;;;5113708;28;19924;-63
2023/08/09 05:30:00;;;;;;;;;;;12.10;99.90;;;;;;5094019;28;19932;-63
2023/08/09 05:32:27;;;;;;;;;;;12.20;99.90;;;;;;5094530;28;19927;-63
2023/08/09 05:34:53;;;;;;;;;;;12.40;99.90;;;;;;5094232;28;20383;-63
2023/08/09 05:37:20;;;;;;;;;;;12.50;99.90;;;;;;5112040;28;20000;-63
2023/08/09 05:39:47;;;;;;;;;;;12.50;99.90;;;;;;5093811;28;19924;-63
2023/08/09 05:42:15;;;;;;;;;;;12.60;99.90;;;;;;5092512;28;20596;-62
2023/08/09 05:44:42;;;;;;;;;;;12.70;99.90;;;;;;5126005;27;20430;-63
2023/08/09 05:47:08;;;;;;;;;;;12.80;99.90;;;;;;5111406;28;19931;-63
2023/08/09 05:49:35;;;;;;;;;;;13.00;99.90;;;;;;5095475;28;19973;-63
2023/08/09 05:52:03;;;;;;;;;;;13.10;99.90;;;;;;5093264;28;20027;-63
2023/08/09 05:54:30;;;;;;;;;;;13.30;99.90;;;;;;5094108;28;20024;-63
2023/08/09 05:56:57;;;;;;;;;;;13.50;99.90;;;;;;5112036;28;20931;-63
2023/08/09 05:59:25;;;;;;;;;;;13.70;99.90;;;;;;5112091;28;19969;-64
2023/08/09 06:01:52;;;;;;;;;;;13.90;99.90;;;;;;5094143;28;20371;-63
2023/08/09 06:04:18;;;;;;;;;;;14.10;99.90;;;;;;5112896;28;19924;-63
2023/08/09 06:06:46;;;;;;;;;;;14.30;99.90;;;;;;5107746;28;20348;-63
2023/08/09 06:09:13;;;;;;;;;;;14.60;99.90;;;;;;5113338;28;20323;-63
2023/08/09 06:11:40;;;;;;;;;;;14.80;99.90;;;;;;5110550;28;19924;-63
2023/08/09 06:14:06;;;;;;;;;;;15.10;99.90;;;;;;5091779;28;19931;-63
2023/08/09 06:16:35;;;;;;;;;;;15.30;99.90;;;;;;5110760;28;19927;-63
2023/08/09 06:19:02;;;;;;;;;;;15.50;99.90;;;;;;5111462;28;19923;-63
2023/08/09 06:21:29;;;;;;;;;;;15.80;99.90;;;;;;5093577;28;19924;-63
2023/08/09 06:23:55;;;;;;;;;;;15.90;99.90;;;;;;5113121;28;19931;-64
2023/08/09 06:26:22;;;;;;;;;;;16.10;99.90;;;;;;5107243;28;20398;-64
2023/08/09 06:28:49;;;;;;;;;;;16.30;99.90;;;;;;5111028;28;20311;-64
2023/08/09 06:31:16;;;;;;;;;;;16.50;99.90;;;;;;5113354;28;19975;-63
2023/08/09 06:33:44;;;;;;;;;;;16.60;99.90;;;;;;5110430;28;19985;-62
2023/08/09 06:36:12;;;;;;;;;;;16.70;99.90;;;;;;5113029;28;19973;-62
2023/08/09 06:38:39;;;;;;;;;;;17.00;99.90;;;;;;5112953;28;20427;-62
2023/08/09 06:41:06;;;;;;;;;;;17.30;99.90;;;;;;5112638;28;19923;-62
2023/08/09 06:43:33;;;;;;;;;;;17.70;99.90;;;;;;5112667;28;20368;-63
2023/08/09 06:46:01;;;;;;;;;;;18.00;99.90;;;;;;5112442;28;19923;-63
2023/08/09 06:48:29;;;;;;;;;;;18.40;99.90;;;;;;5094247;28;19928;-63
2023/08/09 06:50:57;;;;;;;;;;;19.00;99.90;;;;;;5093775;28;19939;-62
2023/08/09 06:53:24;;;;;;;;;;;19.50;99.90;;;;;;5112885;28;19924;-63
2023/08/09 06:55:51;;;;;;;;;;;19.50;99.90;;;;;;5092854;28;19939;-62
2023/08/09 06:58:18;;;;;;;;;;;20.10;99.90;;;;;;5094682;28;19973;-62
2023/08/09 07:00:46;;;;;;;;;;;20.30;99.90;;;;;;5111520;28;20386;-62
2023/08/09 07:03:13;;;;;;;;;;;20.60;99.90;;;;;;5091518;28;19969;-62
2023/08/09 07:05:40;;;;;;;;;;;21.00;99.90;;;;;;5128383;28;20383;-63
2023/08/09 07:08:08;;;;;;;;;;;21.30;99.90;;;;;;5112381;28;20379;-63
2023/08/09 07:10:34;;;;;;;;;;;21.60;99.90;;;;;;5112591;28;19924;-63
2023/08/09 07:13:01;;;;;;;;;;;21.90;99.90;;;;;;5112609;28;19934;-63
2023/08/09 07:15:28;;;;;;;;;;;22.00;99.90;;;;;;5111926;28;19932;-63
2023/08/09 07:17:55;;;;;;;;;;;22.10;99.90;;;;;;5112217;28;19924;-63
2023/08/09 07:20:21;;;;;;;;;;;22.30;99.90;;;;;;5094232;28;20356;-62
2023/08/09 07:22:48;;;;;;;;;;;22.50;99.90;;;;;;5111764;28;19923;-63
2023/08/09 07:25:16;;;;;;;;;;;22.70;99.90;;;;;;5112636;28;19923;-63
2023/08/09 07:27:43;;;;;;;;;;;22.90;99.10;;;;;;5112483;28;19923;-62
2023/08/09 07:30:11;;;;;;;;;;;23.00;99.40;;;;;;5111969;28;19932;-63
2023/08/09 07:32:40;;;;;;;;;;;23.20;99.00;;;;;;5094415;28;19974;-62
2023/08/09 07:35:07;;;;;;;;;;;23.30;98.90;;;;;;5110250;28;19976;-62
2023/08/09 07:37:34;;;;;;;;;;;23.40;97.80;;;;;;5093083;28;19984;-62
2023/08/09 07:40:02;;;;;;;;;;;23.50;98.10;;;;;;5093981;28;19928;-63
2023/08/09 07:42:31;;;;;;;;;;;23.50;96.70;;;;;;5094164;28;19930;-63
2023/08/09 07:44:58;;;;;;;;;;;23.90;97.40;;;;;;5093336;28;19928;-63
2023/08/09 07:47:25;;;;;;;;;;;24.30;95.90;;;;;;5093578;28;19931;-63
2023/08/09 07:49:52;;;;;;;;;;;23.80;95.90;;;;;;5093956;28;19924;-63
2023/08/09 07:52:19;;;;;;;;;;;23.90;96.20;;;;;;5111292;28;19924;-63
2023/08/09 07:54:45;;;;;;;;;;;24.20;96.50;;;;;;5094187;28;20272;-63
2023/08/09 07:57:12;;;;;;;;;;;24.30;95.40;;;;;;5094082;28;19923;-63
2023/08/09 07:59:40;;;;;;;;;;;24.30;95.90;;;;;;5111596;28;19935;-63
2023/08/09 08:02:07;;;;;;;;;;;24.70;94.40;;;;;;5111867;28;19931;-63
2023/08/09 08:04:34;;;;;;;;;;;24.70;94.00;;;;;;5093316;28;20393;-63
2023/08/09 08:07:00;;;;;;;;;;;24.80;94.10;;;;;;5111969;28;19923;-62
2023/08/09 08:09:27;;;;;;;;;;;24.70;94.40;;;;;;5112132;28;19931;-63
2023/08/09 08:11:54;;;;;;;;;;;25.10;93.40;;;;;;5109222;28;19924;-63
2023/08/09 08:14:22;;;;;;;;;;;25.00;93.40;;;;;;5092514;28;19931;-63
2023/08/09 08:16:50;;;;;;;;;;;25.20;93.70;;;;;;5115431;28;19939;-63
2023/08/09 08:19:17;;;;;;;;;;;25.30;93.60;;;;;;5096943;28;19945;-63
2023/08/09 08:21:44;;;;;;;;;;;24.70;93.30;;;;;;5115669;28;19924;-64
2023/08/09 08:24:11;;;;;;;;;;;25.10;92.10;;;;;;5114597;28;19935;-63
2023/08/09 08:26:38;;;;;;;;;;;25.30;91.60;;;;;;5095148;28;19924;-63
2023/08/09 08:29:06;;;;;;;;;;;25.60;91.30;;;;;;5114451;28;19935;-63
2023/08/09 08:31:32;;;;;;;;;;;25.40;91.00;;;;;;5114940;28;19928;-63
2023/08/09 08:34:00;;;;;;;;;;;25.50;90.70;;;;;;5114686;28;19924;-63
2023/08/09 08:36:27;;;;;;;;;;;25.60;91.30;;;;;;5097203;28;19969;-63
2023/08/09 08:38:54;;;;;;;;;;;25.30;91.10;;;;;;5114036;28;20387;-63
2023/08/09 08:41:21;;;;;;;;;;;25.40;91.40;;;;;;5096117;28;19931;-64
2023/08/09 08:43:49;;;;;;;;;;;25.10;90.80;;;;;;5096528;28;20399;-64
2023/08/09 08:46:16;;;;;;;;;;;24.40;91.00;;;;;;5095421;28;19963;-64
2023/08/09 08:48:43;;;;;;;;;;;24.00;92.60;;;;;;5114382;28;20295;-64
2023/08/09 08:51:12;;;;;;;;;;;24.40;92.10;;;;;;5114886;28;20402;-64
2023/08/09 08:53:39;;;;;;;;;;;24.80;91.80;;;;;;5114411;28;19932;-64
2023/08/09 08:56:06;;;;;;;;;;;24.50;90.70;;;;;;5114794;28;19930;-64
2023/08/09 08:58:33;;;;;;;;;;;24.10;91.70;;;;;;5114550;28;19927;-64
2023/08/09 09:01:00;;;;;;;;;;;23.10;93.20;;;;;;5096049;28;19928;-64
2023/08/09 09:03:27;;;;;;;;;;;22.30;93.80;;;;;;5114377;28;20341;-64
2023/08/09 09:05:54;;;;;;;;;;;21.80;94.90;;;;;;5114767;28;19974;-64
2023/08/09 09:08:23;;;;;;;;;;;22.40;95.50;;;;;;5113655;28;20391;-64
2023/08/09 09:10:53;;;;;;;;;;;22.60;94.10;;;;;;5114560;28;20341;-64
2023/08/09 09:13:25;;;;;;;;;;;22.50;94.30;;;;;;5112361;28;20010;-64
2023/08/09 09:15:52;;;;;;;;;;;22.90;94.30;;;;;;5065692;28;19923;-64
2023/08/09 09:18:20;;;;;;;;;;;23.00;94.20;;;;;;5114424;28;19930;-64
2023/08/09 09:20:47;;;;;;;;;;;22.60;93.50;;;;;;5095555;28;20877;-64
2023/08/09 09:23:25;;;;;;;;;;;22.30;94.00;;;;;;5095331;28;20023;-64
2023/08/09 09:26:00;;;;;;;;;;;22.00;94.20;;;;;;5095896;28;19945;-64
2023/08/09 09:28:27;;;;;;;;;;;21.70;94.70;;;;;;5096080;28;19966;-64
2023/08/09 09:30:57;;;;;;;;;;;21.50;95.20;;;;;;5113532;28;19976;-63
2023/08/09 09:33:32;;;;;;;;;;;20.80;95.70;;;;;;5114017;28;20371;-63
2023/08/09 09:35:59;;;;;;;;;;;21.80;96.90;;;;;;5094940;28;19931;-63
2023/08/09 09:38:27;;;;;;;;;;;23.20;95.10;;;;;;5095873;28;19944;-63
2023/08/09 09:40:54;;;;;;;;;;;23.40;93.30;;;;;;5095775;28;20413;-64
2023/08/09 09:43:21;;;;;;;;;;;22.90;93.20;;;;;;5092885;28;20406;-63
2023/08/09 09:45:47;;;;;;;;;;;22.70;93.90;;;;;;5113737;28;19931;-63
2023/08/09 09:48:16;;;;;;;;;;;22.20;93.90;;;;;;5107460;27;19928;-63
2023/08/09 09:50:43;;;;;;;;;;;22.00;94.50;;;;;;5088260;28;19945;-63
2023/08/09 09:53:10;;;;;;;;;;;21.40;93.90;;;;;;5090817;28;19934;-63
2023/08/09 09:55:38;;;;;;;;;;;21.90;94.80;;;;;;5109831;28;19923;-62
2023/08/09 09:58:05;;;;;;;;;;;22.40;93.80;;;;;;5091665;28;19951;-62
2023/08/09 10:00:33;;;;;;;;;;;22.30;93.70;;;;;;5111116;28;19927;-64
2023/08/09 10:03:00;;;;;;;;;;;22.10;94.60;;;;;;5092293;28;19931;-65
2023/08/09 10:05:30;;;;;;;;;;;22.00;94.50;;;;;;5093025;28;19928;-65
2023/08/09 10:07:58;;;;;;;;;;;22.80;94.60;;;;;;5110296;28;19931;-65
2023/08/09 10:10:24;;;;;;;;;;;23.80;93.20;;;;;;5094556;28;19968;-64
2023/08/09 10:12:54;;;;;;;;;;;24.00;92.70;;;;;;5093036;28;19969;-65
2023/08/09 10:15:22;;;;;;;;;;;23.30;92.80;;;;;;5110935;28;19928;-64
2023/08/09 10:17:51;;;;;;;;;;;23.70;93.30;;;;;;5092933;28;19927;-65
2023/08/09 10:20:19;;;;;;;;;;;24.70;93.00;;;;;;5108857;28;19935;-65
2023/08/09 10:22:46;;;;;;;;;;;25.90;92.60;;;;;;5110227;28;19938;-65
2023/08/09 10:25:13;;;;;;;;;;;25.50;90.50;;;;;;5110388;28;19955;-64
2023/08/09 10:27:47;;;;;;;;;;;24.80;91.10;;;;;;5111909;28;19971;-63
2023/08/09 10:30:16;;;;;;;;;;;24.70;91.30;;;;;;5092761;28;19947;-64
2023/08/09 10:32:49;;;;;;;;;;;24.30;90.90;;;;;;5111320;28;20385;-64
2023/08/09 10:35:17;;;;;;;;;;;23.90;91.20;;;;;;5093143;28;20360;-63
2023/08/09 10:37:44;;;;;;;;;;;23.20;92.00;;;;;;5093167;28;20393;-63
2023/08/09 10:40:15;;;;;;;;;;;23.30;92.70;;;;;;5109315;28;19932;-64
2023/08/09 10:42:45;;;;;;;;;;;24.20;92.50;;;;;;5112310;28;20347;-63
2023/08/09 10:45:12;;;;;;;;;;;24.60;91.60;;;;;;5091550;28;20228;-63
2023/08/09 10:47:42;;;;;;;;;;;23.90;90.10;;;;;;5108670;28;19927;-63
2023/08/09 10:50:10;;;;;;;;;;;23.60;91.20;;;;;;5111477;28;19981;-63
2023/08/09 10:52:38;;;;;;;;;;;23.60;91.70;;;;;;5094646;28;19923;-63
2023/08/09 10:55:24;;;;;;;;;;;23.70;91.40;;;;;;5111571;28;19931;-63
2023/08/09 10:57:51;;;;;;;;;;;24.30;91.90;;;;;;5092063;28;19920;-64
2023/08/09 11:00:19;;;;;;;;;;;24.80;91.00;;;;;;5111493;28;19930;-63
2023/08/09 11:02:47;;;;;;;;;;;25.30;88.30;;;;;;5112085;28;19927;-63
2023/08/09 11:05:14;;;;;;;;;;;25.30;88.10;;;;;;5112439;28;19928;-63
2023/08/09 11:07:43;;;;;;;;;;;25.20;88.70;;;;;;5112265;28;19953;-62
2023/08/09 11:10:12;;;;;;;;;;;25.00;88.50;;;;;;5112733;28;20379;-63
2023/08/09 11:12:41;;;;;;;;;;;24.50;89.60;;;;;;5112750;28;19927;-63
2023/08/09 11:15:08;;;;;;;;;;;24.20;89.30;;;;;;5094096;28;19973;-63
2023/08/09 11:17:37;;;;;;;;;;;24.80;89.70;;;;;;5112604;28;19924;-63
2023/08/09 11:20:13;;;;;;;;;;;25.80;90.00;;;;;;5094420;28;19950;-63
2023/08/09 11:22:40;;;;;;;;;;;26.40;86.90;;;;;;5111987;28;19996;-64
2023/08/09 11:25:08;;;;;;;;;;;26.10;86.80;;;;;;5094408;28;19963;-63
2023/08/09 11:27:38;;;;;;;;;;;25.10;88.60;;;;;;5112563;28;19923;-62
2023/08/09 11:30:08;;;;;;;;;;;24.90;89.10;;;;;;5093809;28;20432;-63
2023/08/09 11:32:34;;;;;;;;;;;24.90;88.30;;;;;;5093895;28;19977;-64
2023/08/09 11:35:01;;;;;;;;;;;24.50;88.70;;;;;;5094479;28;20387;-63
2023/08/09 11:37:30;;;;;;;;;;;24.10;90.30;;;;;;5111754;28;19932;-63
2023/08/09 11:39:57;;;;;;;;;;;23.90;91.00;;;;;;5112446;28;20007;-63
2023/08/09 11:42:24;;;;;;;;;;;23.30;91.10;;;;;;5112318;28;19928;-63
2023/08/09 11:44:50;;;;;;;;;;;23.10;91.80;;;;;;5093537;28;19925;-63
2023/08/09 11:47:17;;;;;;;;;;;23.00;92.80;;;;;;5094273;28;19936;-63
2023/08/09 11:49:44;;;;;;;;;;;22.90;92.30;;;;;;5095530;28;19927;-63
2023/08/09 11:52:15;;;;;;;;;;;22.80;92.20;;;;;;5116155;28;19934;-63
2023/08/09 11:54:43;;;;;;;;;;;22.60;93.10;;;;;;5098027;28;19934;-63
2023/08/09 11:57:10;;;;;;;;;;;22.80;93.50;;;;;;5115642;28;19928;-63
2023/08/09 11:59:39;;;;;;;;;;;22.90;93.60;;;;;;5097616;28;19924;-63
2023/08/09 12:02:07;;;;;;;;;;;22.80;93.70;;;;;;5115541;28;19924;-63
2023/08/09 12:04:33;;;;;;;;;;;22.70;94.10;;;;;;5097181;28;19928;-63
2023/08/09 12:07:02;;;;;;;;;;;22.30;94.50;;;;;;5115922;28;19930;-63
2023/08/09 12:09:31;;;;;;;;;;;22.00;95.20;;;;;;5097325;28;19924;-63
2023/08/09 12:12:03;;;;;;;;;;;21.90;95.70;;;;;;5095206;28;19976;-63
2023/08/09 12:14:30;;;;;;;;;;;21.70;95.60;;;;;;5113604;28;19931;-63
2023/08/09 12:16:56;;;;;;;;;;;21.60;95.50;;;;;;5115974;28;19924;-63
2023/08/09 12:19:23;;;;;;;;;;;21.80;95.90;;;;;;5094882;28;19923;-63
2023/08/09 12:21:50;;;;;;;;;;;21.80;95.90;;;;;;5115448;28;19939;-63
2023/08/09 12:24:17;;;;;;;;;;;21.90;96.00;;;;;;5115242;28;19931;-63
2023/08/09 12:26:43;;;;;;;;;;;22.20;95.40;;;;;;5115031;28;19931;-64
2023/08/09 12:29:11;;;;;;;;;;;23.30;94.80;;;;;;5114429;28;19931;-63
2023/08/09 12:31:38;;;;;;;;;;;23.60;93.00;;;;;;5097312;28;19924;-64
2023/08/09 12:34:08;;;;;;;;;;;23.10;92.10;;;;;;5112963;28;19970;-64
2023/08/09 12:36:34;;;;;;;;;;;22.50;93.10;;;;;;5097219;28;20045;-64
2023/08/09 12:39:01;;;;;;;;;;;22.30;94.00;;;;;;5096020;28;20416;-64
2023/08/09 12:41:28;;;;;;;;;;;21.80;94.20;;;;;;5115214;28;19924;-63
2023/08/09 12:43:55;;;;;;;;;;;22.00;95.30;;;;;;5114897;28;19924;-63
2023/08/09 12:46:23;;;;;;;;;;;22.80;94.30;;;;;;5114747;28;20348;-63
2023/08/09 12:48:50;;;;;;;;;;;23.60;92.80;;;;;;5097000;28;20442;-63
2023/08/09 12:51:17;;;;;;;;;;;24.80;91.50;;;;;;5096820;28;19993;-63
2023/08/09 12:53:46;;;;;;;;;;;25.50;89.20;;;;;;5114664;28;19928;-63
2023/08/09 12:56:13;;;;;;;;;;;26.20;87.50;;;;;;5114821;28;19935;-63
2023/08/09 12:58:39;;;;;;;;;;;26.60;86.80;;;;;;5115022;28;19993;-63
2023/08/09 13:01:07;;;;;;;;;;;27.60;84.90;;;;;;5113632;28;19931;-63
2023/08/09 13:03:35;;;;;;;;;;;27.70;85.40;;;;;;5096840;28;19973;-63
2023/08/09 13:06:02;;;;;;;;;;;27.80;85.80;;;;;;5114655;28;19955;-63
2023/08/09 13:08:30;;;;;;;;;;;28.50;85.00;;;;;;5113996;28;19930;-63
2023/08/09 13:10:57;;;;;;;;;;;28.90;84.00;;;;;;5114623;28;19924;-63
2023/08/09 13:13:24;;;;;;;;;;;29.10;84.50;;;;;;5096688;28;20414;-63
2023/08/09 13:15:51;;;;;;;;;;;29.40;84.90;;;;;;5095492;28;19938;-63
2023/08/09 13:18:17;;;;;;;;;;;29.00;84.40;;;;;;5114731;28;19931;-63
2023/08/09 13:20:46;;;;;;;;;;;28.80;84.00;;;;;;5114373;28;19981;-63
2023/08/09 13:23:13;;;;;;;;;;;28.70;85.80;;;;;;5095658;28;20379;-63
2023/08/09 13:25:39;;;;;;;;;;;28.50;85.00;;;;;;5114396;28;19931;-63
2023/08/09 13:28:06;;;;;;;;;;;28.90;85.70;;;;;;5113906;28;20393;-63
2023/08/09 13:30:33;;;;;;;;;;;29.30;85.10;;;;;;5113866;28;20383;-63
2023/08/09 13:33:00;;;;;;;;;;;29.60;84.90;;;;;;5114276;28;19938;-63
2023/08/09 13:35:26;;;;;;;;;;;28.60;84.10;;;;;;5095509;28;19980;-63
2023/08/09 13:37:55;;;;;;;;;;;29.00;83.30;;;;;;5095898;28;19931;-64
2023/08/09 13:40:21;;;;;;;;;;;29.50;82.90;;;;;;5114085;28;20318;-63
2023/08/09 13:42:48;;;;;;;;;;;28.80;82.70;;;;;;5113099;28;19924;-63
2023/08/09 13:45:15;;;;;;;;;;;29.30;84.20;;;;;;5113959;28;19985;-63
2023/08/09 13:47:41;;;;;;;;;;;29.50;80.80;;;;;;5095964;28;20436;-64
2023/08/09 13:50:10;;;;;;;;;;;29.60;80.30;;;;;;5112893;28;20406;-63
2023/08/09 13:52:37;;;;;;;;;;;29.50;79.80;;;;;;5095456;28;19972;-64
2023/08/09 13:55:05;;;;;;;;;;;29.80;79.80;;;;;;5095382;28;19989;-63
2023/08/09 13:57:32;;;;;;;;;;;29.80;79.40;;;;;;5093846;28;19924;-63
2023/08/09 14:00:00;;;;;;;;;;;29.40;78.80;;;;;;5095242;28;19950;-63
2023/08/09 14:02:27;;;;;;;;;;;29.60;78.80;;;;;;5095191;28;19931;-64
2023/08/09 14:04:54;;;;;;;;;;;29.40;79.20;;;;;;5094927;28;19923;-64
2023/08/09 14:07:21;;;;;;;;;;;29.70;79.60;;;;;;5113128;28;19932;-65
2023/08/09 14:09:47;;;;;;;;;;;29.00;79.20;;;;;;5092763;28;19923;-63
2023/08/09 14:12:15;;;;;;;;;;;28.80;80.30;;;;;;5111605;28;19924;-63
2023/08/09 14:14:42;;;;;;;;;;;29.00;80.40;;;;;;5094752;28;19977;-63
2023/08/09 14:17:09;;;;;;;;;;;28.80;80.10;;;;;;5095321;28;19928;-64
2023/08/09 14:19:36;;;;;;;;;;;28.80;81.00;;;;;;5111433;28;19931;-65